createdAt,value
2023-02-16T00:01:53.422Z,60.30
2023-02-16T00:04:21.804Z,59.52
2023-02-16T00:06:49.482Z,60.32
2023-02-16T00:09:16.636Z,60.30
2023-02-16T00:11:43.723Z,60.13
2023-02-16T00:14:12.342Z,60.29
2023-02-16T00:16:39.059Z,60.46
2023-02-16T00:19:20.894Z,60.63
2023-02-16T00:21:47.843Z,61.33
2023-02-16T00:24:15.155Z,61.27
2023-02-16T00:26:42.722Z,61.17
2023-02-16T00:29:20.998Z,60.92
2023-02-16T00:31:48.039Z,60.53
2023-02-16T00:34:36.901Z,61.19
2023-02-16T00:37:05.407Z,60.35
2023-02-16T00:39:32.766Z,60.95
2023-02-16T00:42:01.709Z,61.17
2023-02-16T00:44:33.923Z,60.99
2023-02-16T00:47:04.217Z,60.83
2023-02-16T00:49:30.913Z,61.44
2023-02-16T00:51:57.844Z,61.30
2023-02-16T00:54:24.542Z,61.10
2023-02-16T00:56:51.278Z,61.14
2023-02-16T00:59:20.675Z,61.15
2023-02-16T01:01:49.331Z,61.29
2023-02-16T01:04:20.793Z,61.58
2023-02-16T01:06:47.451Z,61.57
2023-02-16T01:09:17.611Z,61.56
2023-02-16T01:11:44.271Z,61.78
2023-02-16T01:14:12.969Z,61.96
2023-02-16T01:16:42.486Z,61.90
2023-02-16T01:19:12.419Z,61.62
2023-02-16T01:21:39.294Z,61.91
2023-02-16T01:24:06.435Z,62.13
2023-02-16T01:26:39.642Z,61.98
2023-02-16T01:29:06.495Z,62.40
2023-02-16T01:31:33.329Z,62.42
2023-02-16T01:34:00.112Z,61.91
2023-02-16T01:36:31.429Z,62.09
2023-02-16T01:38:58.029Z,62.11
2023-02-16T01:41:38.804Z,62.28
2023-02-16T01:44:13.010Z,62.15
2023-02-16T01:46:46.011Z,61.94
2023-02-16T01:49:13.821Z,62.16
2023-02-16T01:51:51.772Z,62.10
2023-02-16T01:54:29.199Z,61.84
2023-02-16T01:57:00.104Z,62.21
2023-02-16T01:59:40.144Z,62.22
2023-02-16T02:02:14.634Z,62.12
2023-02-16T02:04:46.860Z,62.41
2023-02-16T02:07:25.568Z,62.62
2023-02-16T02:10:01.110Z,62.69
2023-02-16T02:12:34.590Z,62.88
2023-02-16T02:15:01.213Z,62.46
2023-02-16T02:17:28.841Z,62.34
2023-02-16T02:20:02.518Z,62.60
2023-02-16T02:23:05.654Z,62.21
2023-02-16T02:25:52.335Z,62.19
2023-02-16T02:28:29.135Z,62.23
2023-02-16T02:31:05.786Z,62.40
2023-02-16T02:33:46.888Z,62.79
2023-02-16T02:36:26.855Z,62.39
2023-02-16T02:39:03.420Z,62.79
2023-02-16T02:41:38.024Z,62.67
2023-02-16T02:44:08.785Z,62.99
2023-02-16T02:46:36.742Z,62.76
2023-02-16T02:49:03.759Z,63.30
2023-02-16T02:51:30.629Z,62.80
2023-02-16T02:54:03.060Z,62.71
2023-02-16T02:56:29.884Z,63.10
2023-02-16T02:59:00.600Z,62.80
2023-02-16T03:01:29.642Z,63.05
2023-02-16T03:03:57.802Z,62.83
2023-02-16T03:06:27.929Z,62.94
2023-02-16T03:08:59.713Z,63.26
2023-02-16T03:11:27.943Z,62.97
2023-02-16T03:13:59.274Z,63.43
2023-02-16T03:16:31.492Z,62.94
2023-02-16T03:18:59.198Z,63.02
2023-02-16T03:21:27.887Z,63.01
2023-02-16T03:23:56.112Z,63.43
2023-02-16T03:26:24.151Z,63.76
2023-02-16T03:28:51.844Z,63.80
2023-02-16T03:31:21.905Z,63.60
2023-02-16T03:33:51.651Z,63.18
2023-02-16T03:36:18.389Z,62.91
2023-02-16T03:38:45.194Z,62.61
2023-02-16T03:41:11.726Z,62.97
2023-02-16T03:43:38.321Z,63.07
2023-02-16T03:46:05.511Z,62.52
2023-02-16T03:48:32.126Z,62.87
2023-02-16T03:51:00.023Z,62.59
2023-02-16T03:53:26.829Z,62.59
2023-02-16T03:55:53.747Z,62.55
2023-02-16T03:58:24.145Z,62.23
2023-02-16T04:00:51.563Z,62.81
2023-02-16T04:03:18.438Z,62.51
2023-02-16T04:05:45.617Z,62.23
2023-02-16T04:08:13.620Z,62.27
2023-02-16T04:10:40.369Z,62.41
2023-02-16T04:13:07.390Z,62.61
2023-02-16T04:15:34.313Z,62.55
2023-02-16T04:18:01.260Z,62.39
2023-02-16T04:20:29.973Z,62.21
2023-02-16T04:22:57.002Z,62.15
2023-02-16T04:25:25.519Z,62.56
2023-02-16T04:27:52.590Z,62.87
2023-02-16T04:30:21.114Z,62.44
2023-02-16T04:32:48.294Z,62.84
2023-02-16T04:35:15.520Z,63.29
2023-02-16T04:37:42.389Z,62.72
2023-02-16T04:40:10.821Z,62.70
2023-02-16T04:42:39.049Z,63.10
2023-02-16T04:45:06.611Z,62.84
2023-02-16T04:47:33.541Z,63.15
2023-02-16T04:50:00.474Z,63.38
2023-02-16T04:52:27.219Z,63.69
2023-02-16T04:54:53.773Z,63.20
2023-02-16T04:57:20.509Z,63.21
2023-02-16T04:59:48.548Z,63.21
2023-02-16T05:02:15.195Z,63.70
2023-02-16T05:04:41.849Z,63.73
2023-02-16T05:07:11.316Z,63.85
2023-02-16T05:09:37.883Z,63.46
2023-02-16T05:12:04.572Z,63.71
2023-02-16T05:14:33.028Z,63.87
2023-02-16T05:17:01.051Z,63.74
2023-02-16T05:19:27.755Z,63.63
2023-02-16T05:21:54.708Z,63.56
2023-02-16T05:24:21.276Z,63.78
2023-02-16T05:26:47.849Z,63.93
2023-02-16T05:29:14.554Z,63.62
2023-02-16T05:31:41.238Z,63.87
2023-02-16T05:34:09.270Z,63.57
2023-02-16T05:36:36.138Z,63.95
2023-02-16T05:39:03.122Z,64.36
2023-02-16T05:41:29.868Z,63.82
2023-02-16T05:44:03.626Z,63.73
2023-02-16T05:46:32.641Z,63.64
2023-02-16T05:48:59.462Z,63.84
2023-02-16T05:51:27.980Z,63.58
2023-02-16T05:53:58.533Z,63.90
2023-02-16T05:56:27.692Z,63.93
2023-02-16T05:58:55.247Z,63.46
2023-02-16T06:01:22.204Z,63.07
2023-02-16T06:03:52.156Z,63.81
2023-02-16T06:06:19.061Z,63.32
2023-02-16T06:08:47.611Z,63.14
2023-02-16T06:11:14.438Z,62.96
2023-02-16T06:13:43.553Z,62.78
2023-02-16T06:16:10.259Z,62.59
2023-02-16T06:18:36.828Z,62.23
2023-02-16T06:21:04.031Z,62.20
2023-02-16T06:23:30.936Z,61.76
2023-02-16T06:25:58.968Z,61.42
2023-02-16T06:28:25.519Z,61.78
2023-02-16T06:30:53.291Z,61.14
2023-02-16T06:33:19.925Z,61.22
2023-02-16T06:35:46.481Z,60.47
2023-02-16T06:38:12.958Z,60.34
2023-02-16T06:40:39.580Z,59.56
2023-02-16T06:43:07.506Z,59.86
2023-02-16T06:45:34.187Z,59.43
2023-02-16T06:48:00.894Z,59.24
2023-02-16T06:50:27.735Z,58.91
2023-02-16T06:52:54.235Z,58.91
2023-02-16T06:55:21.065Z,58.67
2023-02-16T06:57:47.640Z,58.82
2023-02-16T07:00:16.964Z,58.27
2023-02-16T07:02:43.608Z,58.37
2023-02-16T07:05:10.115Z,57.73
2023-02-16T07:07:36.663Z,57.24
2023-02-16T07:10:04.064Z,56.89
2023-02-16T07:12:30.663Z,57.50
2023-02-16T07:14:57.254Z,56.78
2023-02-16T07:17:25.207Z,56.29
2023-02-16T07:19:51.845Z,56.41
2023-02-16T07:22:18.492Z,56.38
2023-02-16T07:24:45.110Z,56.66
2023-02-16T07:27:11.694Z,56.33
2023-02-16T07:29:38.258Z,56.30
2023-02-16T07:32:05.380Z,56.44
2023-02-16T07:34:33.419Z,56.23
2023-02-16T07:37:00.309Z,56.51
2023-02-16T07:39:26.957Z,56.79
2023-02-16T07:41:53.502Z,56.77
2023-02-16T07:44:20.280Z,56.36
2023-02-16T07:46:46.848Z,56.39
2023-02-16T07:49:13.469Z,56.14
2023-02-16T07:51:41.584Z,55.99
2023-02-16T07:54:08.123Z,56.16
2023-02-16T07:56:35.228Z,55.73
2023-02-16T07:59:03.897Z,55.92
2023-02-16T08:01:31.164Z,55.42
2023-02-16T08:03:58.080Z,55.16
2023-02-16T08:06:24.826Z,55.36
2023-02-16T08:08:52.757Z,54.32
2023-02-16T08:11:21.230Z,53.72
2023-02-16T08:13:48.401Z,53.83
2023-02-16T08:16:17.124Z,53.34
2023-02-16T08:18:43.997Z,52.87
2023-02-16T08:21:12.045Z,53.45
2023-02-16T08:23:38.643Z,53.16
2023-02-16T08:26:10.129Z,53.28
2023-02-16T08:28:37.026Z,53.29
2023-02-16T08:31:03.937Z,53.13
2023-02-16T08:33:30.616Z,52.72
2023-02-16T08:35:57.188Z,52.70
2023-02-16T08:38:23.878Z,53.25
2023-02-16T08:41:19.827Z,53.80
2023-02-16T08:43:49.805Z,53.99
2023-02-16T08:46:17.569Z,54.21
2023-02-16T08:48:44.201Z,54.50
2023-02-16T08:51:14.230Z,54.14
2023-02-16T08:53:40.917Z,53.61
2023-02-16T08:56:07.405Z,53.26
2023-02-16T08:58:33.991Z,52.49
2023-02-16T09:01:05.488Z,52.00
2023-02-16T09:03:32.882Z,51.57
2023-02-16T09:06:02.634Z,50.80
2023-02-16T09:08:29.663Z,50.05
2023-02-16T09:10:56.267Z,49.77
2023-02-16T09:13:22.992Z,49.73
2023-02-16T09:15:49.615Z,49.62
2023-02-16T09:18:17.538Z,48.76
2023-02-16T09:20:46.936Z,48.48
2023-02-16T09:23:14.290Z,48.08
2023-02-16T09:25:40.918Z,47.26
2023-02-16T09:28:07.771Z,46.83
2023-02-16T09:30:34.460Z,46.78
2023-02-16T09:33:01.743Z,46.03
2023-02-16T09:35:29.837Z,46.00
2023-02-16T09:37:57.035Z,45.83
2023-02-16T09:40:24.279Z,46.34
2023-02-16T09:43:03.339Z,46.23
2023-02-16T09:45:32.090Z,46.35
2023-02-16T09:47:58.730Z,46.42
2023-02-16T09:50:52.131Z,46.25
2023-02-16T09:53:21.778Z,46.89
2023-02-16T09:55:54.551Z,47.79
2023-02-16T09:58:25.751Z,47.28
2023-02-16T10:00:55.749Z,46.77
2023-02-16T10:03:40.839Z,46.33
2023-02-16T10:06:41.967Z,46.21
2023-02-16T10:09:12.672Z,46.72
2023-02-16T10:11:43.800Z,46.93
2023-02-16T10:14:18.374Z,47.30
2023-02-16T10:16:52.706Z,47.52
2023-02-16T10:19:24.110Z,47.38
2023-02-16T10:21:56.301Z,47.71
2023-02-16T10:24:26.241Z,47.89
2023-02-16T10:26:59.772Z,48.11
2023-02-16T10:29:26.419Z,48.32
2023-02-16T10:32:05.127Z,48.64
2023-02-16T10:34:45.350Z,48.87
2023-02-16T10:37:28.958Z,49.17
2023-02-16T10:40:10.598Z,49.14
2023-02-16T10:42:42.130Z,48.84
2023-02-16T10:45:20.357Z,48.83
2023-02-16T10:47:47.020Z,48.27
2023-02-16T10:50:20.127Z,48.34
2023-02-16T10:52:46.940Z,48.02
2023-02-16T10:55:16.070Z,48.03
2023-02-16T10:57:42.790Z,48.91
2023-02-16T11:00:16.487Z,47.86
2023-02-16T11:02:46.356Z,47.64
2023-02-16T11:05:31.609Z,47.19
2023-02-16T11:08:00.045Z,46.94
2023-02-16T11:10:35.590Z,46.81
2023-02-16T11:13:03.052Z,45.88
2023-02-16T11:15:30.708Z,46.14
2023-02-16T11:18:01.063Z,45.86
2023-02-16T11:20:30.362Z,45.15
2023-02-16T11:23:13.330Z,44.97
2023-02-16T11:25:41.443Z,44.91
2023-02-16T11:28:08.274Z,44.55
2023-02-16T11:30:37.112Z,44.73
2023-02-16T11:33:05.964Z,45.40
2023-02-16T11:35:41.879Z,45.20
2023-02-16T11:38:26.453Z,46.04
2023-02-16T11:40:56.016Z,46.38
2023-02-16T11:43:27.455Z,47.30
2023-02-16T11:46:02.159Z,47.67
2023-02-16T11:48:31.460Z,47.76
2023-02-16T11:51:02.510Z,48.38
2023-02-16T11:53:33.152Z,48.29
2023-02-16T11:56:16.914Z,49.28
2023-02-16T11:58:43.610Z,49.63
2023-02-16T12:01:22.324Z,49.07
2023-02-16T12:04:00.480Z,49.00
2023-02-16T12:06:37.569Z,49.35
2023-02-16T12:09:18.780Z,49.55
2023-02-16T12:11:57.592Z,49.34
2023-02-16T12:14:36.479Z,49.71
2023-02-16T12:17:17.257Z,49.73
2023-02-16T12:19:45.923Z,50.23
2023-02-16T12:22:28.052Z,50.35
2023-02-16T12:25:12.511Z,49.67
2023-02-16T12:27:49.212Z,49.73
2023-02-16T12:30:31.522Z,49.16
2023-02-16T12:33:14.162Z,48.78
2023-02-16T12:36:10.101Z,48.45
2023-02-16T12:38:48.377Z,48.05
2023-02-16T12:41:26.465Z,47.40
2023-02-16T12:44:02.421Z,47.36
2023-02-16T12:46:35.833Z,47.15
2023-02-16T12:49:16.714Z,47.01
2023-02-16T12:51:47.932Z,46.96
2023-02-16T12:54:19.381Z,48.67
2023-02-16T12:56:52.084Z,49.02
2023-02-16T12:59:30.619Z,49.03
2023-02-16T13:02:00.643Z,49.36
2023-02-16T13:04:37.577Z,50.09
2023-02-16T13:07:11.950Z,49.35
2023-02-16T13:09:44.118Z,50.16
2023-02-16T13:12:20.838Z,49.59
2023-02-16T13:14:58.357Z,48.91
2023-02-16T13:17:33.095Z,48.83
2023-02-16T13:19:59.690Z,48.75
2023-02-16T13:22:46.611Z,48.52
2023-02-16T13:25:31.264Z,47.78
2023-02-16T13:28:09.369Z,48.56
2023-02-16T13:31:09.174Z,48.44
2023-02-16T13:33:51.381Z,48.80
2023-02-16T13:36:33.246Z,49.12
2023-02-16T13:39:20.666Z,48.10
2023-02-16T13:42:05.536Z,48.29
2023-02-16T13:44:37.436Z,48.03
2023-02-16T13:47:07.516Z,48.39
2023-02-16T13:49:36.613Z,47.78
2023-02-16T13:52:08.799Z,47.85
2023-02-16T13:54:38.138Z,48.07
2023-02-16T13:57:04.816Z,47.44
2023-02-16T14:00:00.457Z,47.12
2023-02-16T14:02:56.406Z,46.49
2023-02-16T14:05:27.033Z,46.53
2023-02-16T14:11:02.245Z,47.97
2023-02-16T14:13:32.173Z,48.75
2023-02-16T14:16:05.490Z,48.97
2023-02-16T14:18:42.042Z,49.60
2023-02-16T14:21:18.605Z,49.41
2023-02-16T14:23:53.947Z,50.22
2023-02-16T14:26:20.809Z,49.32
2023-02-16T14:29:10.862Z,50.74
2023-02-16T14:31:47.199Z,50.48
2023-02-16T14:34:21.384Z,50.12
2023-02-16T14:37:26.412Z,49.27
2023-02-16T14:40:07.461Z,49.73
2023-02-16T14:42:36.505Z,50.76
2023-02-16T14:45:29.993Z,50.33
2023-02-16T14:48:10.777Z,51.45
2023-02-16T14:50:59.635Z,51.90
2023-02-16T14:54:02.606Z,52.34
2023-02-16T14:56:40.283Z,53.07
2023-02-16T14:59:17.499Z,53.77
2023-02-16T15:01:45.753Z,53.79
2023-02-16T15:04:12.539Z,53.47
2023-02-16T15:06:44.359Z,52.95
2023-02-16T15:09:16.827Z,52.86
2023-02-16T15:11:49.812Z,53.88
2023-02-16T15:14:16.495Z,53.29
2023-02-16T15:16:44.257Z,53.63
2023-02-16T15:19:17.535Z,54.51
2023-02-16T15:21:45.554Z,54.25
2023-02-16T15:24:22.441Z,54.29
2023-02-16T15:26:55.070Z,53.98
2023-02-16T15:29:24.221Z,53.36
2023-02-16T15:31:50.908Z,53.26
2023-02-16T15:34:27.364Z,53.50
2023-02-16T15:36:56.494Z,53.08
2023-02-16T15:39:37.902Z,52.63
2023-02-16T15:42:19.810Z,53.03
2023-02-16T15:44:46.885Z,53.05
2023-02-16T15:47:15.511Z,52.48
2023-02-16T15:49:42.536Z,52.45
2023-02-16T15:52:15.563Z,52.43
2023-02-16T15:54:43.272Z,52.94
2023-02-16T15:57:18.448Z,52.48
2023-02-16T15:59:47.713Z,52.43
2023-02-16T16:02:17.087Z,52.28
2023-02-16T16:04:47.269Z,52.39
2023-02-16T16:07:19.168Z,52.42
2023-02-16T16:09:46.457Z,52.47
2023-02-16T16:12:15.995Z,52.48
2023-02-16T16:14:49.098Z,52.97
2023-02-16T16:17:20.826Z,52.88
2023-02-16T16:19:47.413Z,52.85
2023-02-16T16:22:31.142Z,53.30
2023-02-16T16:24:57.717Z,52.90
2023-02-16T16:27:30.608Z,53.20
2023-02-16T16:30:11.587Z,53.19
2023-02-16T16:32:38.677Z,53.30
2023-02-16T16:35:19.303Z,53.58
2023-02-16T16:37:51.131Z,53.55
2023-02-16T16:40:24.344Z,53.60
2023-02-16T16:43:09.267Z,53.61
2023-02-16T16:45:37.520Z,53.29
2023-02-16T16:48:10.145Z,53.66
2023-02-16T16:50:39.715Z,54.19
2023-02-16T16:53:54.191Z,54.54
2023-02-16T16:56:22.381Z,53.95
2023-02-16T16:58:49.968Z,54.14
2023-02-16T17:01:16.886Z,54.34
2023-02-16T17:03:43.799Z,54.36
2023-02-16T17:06:10.959Z,54.63
2023-02-16T17:08:37.569Z,54.50
2023-02-16T17:11:04.525Z,54.39
2023-02-16T17:13:32.439Z,54.64
2023-02-16T17:16:02.663Z,55.41
2023-02-16T17:18:29.383Z,55.20
2023-02-16T17:20:56.155Z,55.05
2023-02-16T17:23:23.017Z,55.12
2023-02-16T17:25:50.020Z,54.73
2023-02-16T17:28:17.992Z,54.73
2023-02-16T17:30:46.244Z,55.02
2023-02-16T17:33:12.882Z,54.57
2023-02-16T17:35:42.302Z,54.98
2023-02-16T17:38:09.901Z,54.82
2023-02-16T17:40:37.159Z,54.81
2023-02-16T17:43:14.058Z,55.87
2023-02-16T17:45:43.717Z,56.02
2023-02-16T17:48:15.693Z,56.65
2023-02-16T17:50:42.277Z,56.57
2023-02-16T17:53:13.506Z,56.82
2023-02-16T17:55:53.185Z,56.47
2023-02-16T17:58:44.679Z,56.35
2023-02-16T18:04:54.710Z,58.21
2023-02-16T21:01:40.759Z,65.44
2023-02-16T21:04:10.027Z,65.55
2023-02-16T21:06:37.477Z,66.00
2023-02-16T21:09:05.285Z,65.69
2023-02-16T21:11:32.190Z,65.93
2023-02-16T21:14:00.225Z,66.53
2023-02-16T21:16:26.917Z,66.54
2023-02-16T21:18:54.041Z,66.64
2023-02-16T21:21:23.153Z,66.52
2023-02-16T21:23:51.927Z,66.76
2023-02-16T21:26:19.769Z,67.60
2023-02-16T21:28:46.654Z,66.91
2023-02-16T21:31:16.937Z,68.26
2023-02-16T21:33:43.738Z,68.37
2023-02-16T21:36:12.087Z,68.59
2023-02-16T21:38:40.663Z,67.62
2023-02-16T21:41:09.276Z,66.81
2023-02-16T21:43:35.858Z,67.01
2023-02-16T21:46:02.594Z,68.01
2023-02-16T21:48:30.587Z,67.82
2023-02-16T21:51:01.526Z,67.86
2023-02-16T21:53:29.539Z,67.86
2023-02-16T21:55:57.968Z,67.28
2023-02-16T21:58:25.372Z,66.80
2023-02-16T22:00:52.405Z,66.81
2023-02-16T22:03:19.642Z,67.23
2023-02-16T22:05:47.834Z,67.50
2023-02-16T22:08:14.745Z,67.13
2023-02-16T22:10:41.383Z,66.58
2023-02-16T22:13:07.998Z,67.02
2023-02-16T22:15:35.783Z,66.26
2023-02-16T22:18:02.556Z,66.04
2023-02-16T22:20:29.235Z,66.56
2023-02-16T22:22:57.168Z,66.08
2023-02-16T22:25:23.829Z,66.33
2023-02-16T22:27:50.591Z,66.99
2023-02-16T22:30:17.597Z,66.87
2023-02-16T22:32:44.238Z,66.77
2023-02-16T22:35:10.832Z,66.94
2023-02-16T22:37:37.464Z,68.05
2023-02-16T22:40:07.144Z,67.14
2023-02-16T22:42:34.140Z,67.35
2023-02-16T22:45:00.685Z,67.29
2023-02-16T22:47:27.264Z,67.71
2023-02-16T22:49:53.863Z,67.78
2023-02-16T22:52:20.931Z,66.67
2023-02-16T22:54:49.830Z,66.84
2023-02-16T22:57:18.082Z,66.57
2023-02-16T22:59:44.730Z,66.99
2023-02-16T23:02:11.297Z,66.51
2023-02-16T23:04:37.940Z,67.85
2023-02-16T23:07:04.413Z,66.71
2023-02-16T23:09:31.121Z,66.58
2023-02-16T23:11:57.696Z,66.18
2023-02-16T23:14:26.269Z,66.51
2023-02-16T23:16:55.325Z,66.91
2023-02-16T23:19:23.906Z,66.16
2023-02-16T23:21:51.476Z,67.24
2023-02-16T23:24:20.411Z,65.89
2023-02-16T23:26:47.502Z,65.51
2023-02-16T23:29:14.737Z,65.94
2023-02-16T23:31:44.874Z,65.44
2023-02-16T23:34:12.110Z,66.07
2023-02-16T23:36:39.804Z,66.05
2023-02-16T23:39:09.001Z,66.49
2023-02-16T23:41:36.344Z,66.61
2023-02-16T23:44:03.443Z,67.43
2023-02-16T23:46:30.310Z,67.02
2023-02-16T23:48:58.342Z,66.90
2023-02-16T23:51:25.049Z,66.64
2023-02-16T23:53:51.841Z,66.17
2023-02-16T23:56:20.416Z,65.83
2023-02-16T23:58:47.456Z,66.80
